Time;durP1;ratioP1;P1;durP2;ratioP2;P2;SDS_P1;SDS_P2;PMS_P1;PMS_P2;Temp;Humidity;BMP_temperature;BMP_pressure;BME280_temperature;BME280_humidity;BME280_pressure;Samples;Min_cycle;Max_cycle;Signal;HPM_P1;HPM_P2
2023/01/04 00:00:34;;;;;;;1999.90;999.90;;;10.80;99.90;;;;;;5054608;28;20025;-75
2023/01/04 00:02:59;;;;;;;1999.90;999.90;;;10.80;99.90;;;;;;5053909;28;20029;-75
2023/01/04 00:05:25;;;;;;;1999.90;999.90;;;10.80;99.90;;;;;;5054547;28;20446;-75
2023/01/04 00:07:50;;;;;;;1999.90;999.90;;;10.70;99.90;;;;;;5054432;28;20029;-75
2023/01/04 00:10:16;;;;;;;1999.90;999.90;;;10.70;99.90;;;;;;5054775;28;20029;-75
2023/01/04 00:12:42;;;;;;;1999.90;999.90;;;10.70;99.90;;;;;;5054207;28;20535;-75
2023/01/04 00:15:08;;;;;;;1999.90;999.90;;;10.60;99.90;;;;;;5054385;28;20025;-76
2023/01/04 00:17:34;;;;;;;1999.90;999.90;;;10.60;99.90;;;;;;5054465;28;20067;-75
2023/01/04 00:19:59;;;;;;;1999.90;999.90;;;10.60;99.90;;;;;;5054185;28;20407;-75
2023/01/04 00:22:25;;;;;;;1999.90;999.90;;;10.60;99.90;;;;;;5054457;28;20029;-76
2023/01/04 00:24:50;;;;;;;1999.90;999.90;;;10.60;99.90;;;;;;5053606;28;20025;-76
2023/01/04 00:27:16;;;;;;;1999.90;999.90;;;10.60;99.90;;;;;;5053912;28;20067;-76
2023/01/04 00:29:41;;;;;;;1999.90;999.90;;;10.60;99.90;;;;;;5053869;28;20025;-76
2023/01/04 00:32:07;;;;;;;1999.90;999.90;;;10.60;99.90;;;;;;5054276;28;20055;-76
2023/01/04 00:34:33;;;;;;;1999.90;999.90;;;10.50;99.90;;;;;;5054562;28;20029;-76
2023/01/04 00:36:58;;;;;;;1999.90;999.90;;;10.50;99.90;;;;;;5054083;28;20061;-75
2023/01/04 00:39:24;;;;;;;1999.90;999.90;;;10.50;99.90;;;;;;5053807;28;20033;-75
2023/01/04 00:41:53;;;;;;;1999.90;999.90;;;10.60;99.90;;;;;;5053680;28;20055;-75
2023/01/04 00:44:20;;;;;;;1999.90;999.90;;;10.60;99.90;;;;;;5054027;28;20490;-76
2023/01/04 00:46:46;;;;;;;1999.90;999.90;;;10.60;99.90;;;;;;5054007;28;20025;-75
2023/01/04 00:49:12;;;;;;;1999.90;999.90;;;10.60;99.90;;;;;;5052352;28;20032;-75
2023/01/04 00:51:39;;;;;;;1999.90;999.90;;;10.70;99.90;;;;;;5052219;28;20373;-75
2023/01/04 00:54:07;;;;;;;1999.90;999.90;;;10.70;99.90;;;;;;5054081;28;20108;-76
2023/01/04 00:56:33;;;;;;;1999.90;999.90;;;10.70;99.90;;;;;;5053814;28;20483;-75
2023/01/04 00:59:00;;;;;;;1999.90;999.90;;;10.70;99.90;;;;;;5053516;28;20135;-75
2023/01/04 01:01:27;;;;;;;1999.90;999.90;;;10.80;99.90;;;;;;5053188;28;20013;-75
2023/01/04 01:03:55;;;;;;;1999.90;999.90;;;10.80;99.90;;;;;;5053024;28;20179;-75
2023/01/04 01:06:23;;;;;;;1999.90;999.90;;;10.80;99.90;;;;;;5053888;28;20496;-75
2023/01/04 01:08:49;;;;;;;1999.90;999.90;;;10.90;99.90;;;;;;5053510;28;20111;-75
2023/01/04 01:11:15;;;;;;;1999.90;999.90;;;10.90;99.90;;;;;;5053273;28;20031;-75
2023/01/04 01:13:41;;;;;;;1999.90;999.90;;;10.90;99.90;;;;;;5053028;28;20040;-75
2023/01/04 01:16:10;;;;;;;1999.90;999.90;;;10.90;99.90;;;;;;5052879;28;20040;-75
2023/01/04 01:18:37;;;;;;;1999.90;999.90;;;11.00;99.90;;;;;;5052342;28;20040;-76
2023/01/04 01:21:17;;;;;;;1999.90;999.90;;;11.00;99.90;;;;;;5052612;28;20032;-75
2023/01/04 01:23:44;;;;;;;1999.90;999.90;;;11.10;99.90;;;;;;5052646;28;20186;-75
2023/01/04 01:26:16;;;;;;;1999.90;999.90;;;11.10;99.90;;;;;;5052855;28;20029;-75
2023/01/04 01:28:42;;;;;;;1999.90;999.90;;;11.10;99.90;;;;;;5053510;28;20163;-75
2023/01/04 01:31:14;;;;;;;1999.90;999.90;;;11.20;99.90;;;;;;5052936;28;20028;-75
2023/01/04 01:33:41;;;;;;;1999.90;999.90;;;11.20;99.90;;;;;;5052968;28;20480;-75
2023/01/04 01:36:08;;;;;;;1999.90;999.90;;;11.20;99.90;;;;;;5052250;28;20025;-75
2023/01/04 01:38:35;;;;;;;1999.90;999.90;;;11.20;99.90;;;;;;5053035;28;20037;-75
2023/01/04 01:41:01;;;;;;;1999.90;999.90;;;11.20;99.90;;;;;;5051208;28;20025;-75
2023/01/04 01:43:46;;;;;;;1999.90;999.90;;;11.20;99.90;;;;;;5052271;28;20036;-74
2023/01/04 01:46:13;;;;;;;1999.90;999.90;;;11.20;99.90;;;;;;5053077;28;20017;-75
2023/01/04 01:48:40;;;;;;;1999.90;999.90;;;11.20;99.90;;;;;;5052907;28;20055;-75
2023/01/04 01:51:06;;;;;;;1999.90;999.90;;;11.20;99.90;;;;;;5051450;28;20115;-75
2023/01/04 01:53:36;;;;;;;1999.90;999.90;;;11.20;99.90;;;;;;5051063;28;20120;-75
2023/01/04 01:56:04;;;;;;;1999.90;999.90;;;11.20;99.90;;;;;;5052296;28;20565;-75
2023/01/04 01:58:38;;;;;;;1999.90;999.90;;;11.10;99.90;;;;;;5052818;28;20025;-75
2023/01/04 02:01:04;;;;;;;1999.90;999.90;;;11.10;99.90;;;;;;5052091;28;20023;-75
2023/01/04 02:03:39;;;;;;;1999.90;999.90;;;11.10;99.90;;;;;;5051549;28;20041;-75
2023/01/04 02:06:10;;;;;;;1999.90;999.90;;;11.10;99.90;;;;;;5052571;28;20071;-75
2023/01/04 02:08:39;;;;;;;1999.90;999.90;;;11.10;99.90;;;;;;5051210;28;20141;-75
2023/01/04 02:11:04;;;;;;;1999.90;999.90;;;11.10;99.90;;;;;;5052028;28;20412;-75
2023/01/04 02:16:41;;;;;;;1999.90;999.90;;;11.10;99.90;;;;;;5052527;28;20035;-75
2023/01/04 02:19:34;;;;;;;1999.90;999.90;;;11.00;99.90;;;;;;5050432;28;20031;-75
2023/01/04 02:22:38;;;;;;;1999.90;999.90;;;11.00;99.90;;;;;;5051867;28;20184;-75
2023/01/04 02:25:29;;;;;;;1999.90;999.90;;;11.00;99.90;;;;;;5009352;28;20038;-76
2023/01/04 02:28:16;;;;;;;1999.90;999.90;;;11.10;99.90;;;;;;5010125;28;20429;-75
2023/01/04 02:31:06;;;;;;;1999.90;999.90;;;11.10;99.90;;;;;;4993728;28;20145;-75
2023/01/04 02:33:57;;;;;;;1999.90;999.90;;;11.10;99.90;;;;;;5009928;28;20519;-75
2023/01/04 02:36:36;;;;;;;1999.90;999.90;;;11.00;99.90;;;;;;5010330;28;20108;-75
2023/01/04 02:39:12;;;;;;;1999.90;999.90;;;11.00;99.90;;;;;;5009715;28;20037;-75
2023/01/04 02:41:50;;;;;;;1999.90;999.90;;;11.00;99.90;;;;;;4993185;28;20397;-75
2023/01/04 02:47:13;;;;;;;1999.90;999.90;;;11.10;99.90;;;;;;4990530;28;20029;-76
2023/01/04 02:50:38;;;;;;;1999.90;999.90;;;11.10;99.90;;;;;;5003198;28;20037;-75
2023/01/04 02:52:33;;;;;;;1999.90;999.90;;;11.00;99.90;;;;;;4997689;28;20432;-75
2023/01/04 02:55:06;;;;;;;1999.90;999.90;;;11.10;99.90;;;;;;5015894;28;20133;-75
2023/01/04 02:57:39;;;;;;;;;;;11.00;99.90;;;;;;5052074;28;20563;-75
2023/01/04 03:00:13;;;;;;;1999.90;999.90;;;11.10;99.90;;;;;;5051714;28;19966;-75
2023/01/04 03:08:39;;;;;;;1999.90;999.90;;;11.10;99.90;;;;;;5051399;28;20406;-75
2023/01/04 03:12:30;;;;;;;1999.90;999.90;;;11.20;99.90;;;;;;5051260;28;20112;-75
2023/01/04 03:14:23;;;;;;;1999.90;999.90;;;11.20;99.90;;;;;;5051140;28;20029;-75
2023/01/04 03:16:50;;;;;;;1999.90;999.90;;;11.20;99.90;;;;;;5050198;28;20056;-75
2023/01/04 03:19:50;;;;;;;1999.90;999.90;;;11.20;99.90;;;;;;5051366;28;20025;-75
2023/01/04 03:36:40;;;;;;;1999.90;999.90;;;11.30;99.90;;;;;;5051191;28;20094;-75
2023/01/04 03:48:30;;;;;;;1999.90;999.90;;;11.30;99.90;;;;;;5051266;28;20036;-75
2023/01/04 03:51:14;;;;;;;;;;;11.30;99.90;;;;;;5031705;28;20029;-75
2023/01/04 03:53:47;;;;;;;1999.90;999.90;;;11.30;99.90;;;;;;5031362;28;19905;-75
2023/01/04 03:56:15;;;;;;;1999.90;999.90;;;11.30;99.90;;;;;;5030874;28;20048;-75
2023/01/04 03:58:41;;;;;;;1999.90;999.90;;;11.30;99.90;;;;;;5031504;28;20040;-75
2023/01/04 04:01:07;;;;;;;1999.90;999.90;;;11.30;99.90;;;;;;5041085;28;20029;-75
2023/01/04 04:09:01;;;;;;;1999.90;999.90;;;11.30;99.90;;;;;;5054660;28;20494;-75
2023/01/04 04:11:30;;;;;;;1999.90;999.90;;;11.30;99.90;;;;;;5054513;28;20021;-75
2023/01/04 04:13:56;;;;;;;1999.90;999.90;;;11.30;99.90;;;;;;5054482;28;20029;-75
2023/01/04 04:16:21;;;;;;;1999.90;999.90;;;11.30;99.90;;;;;;5054225;28;20063;-76
2023/01/04 04:18:47;;;;;;;1999.90;999.90;;;11.40;99.90;;;;;;5054643;28;20064;-76
2023/01/04 04:21:13;;;;;;;1999.90;999.90;;;11.40;99.90;;;;;;5053768;28;20429;-75
2023/01/04 04:23:39;;;;;;;1999.90;999.90;;;11.40;99.90;;;;;;5054037;28;20123;-75
2023/01/04 04:26:05;;;;;;;1999.90;999.90;;;11.30;99.90;;;;;;5054036;28;20468;-75
2023/01/04 04:28:31;;;;;;;1999.90;999.90;;;11.30;99.90;;;;;;5053099;28;20056;-75
2023/01/04 04:30:57;;;;;;;1999.90;999.90;;;11.30;99.90;;;;;;5054371;28;20079;-76
2023/01/04 04:33:22;;;;;;;1999.90;999.90;;;11.30;99.90;;;;;;5054348;28;20029;-76
2023/01/04 04:35:53;;;;;;;1999.90;999.90;;;11.30;99.90;;;;;;5053972;28;20021;-75
2023/01/04 04:38:19;;;;;;;1999.90;999.90;;;11.30;99.90;;;;;;5054027;28;20055;-75
2023/01/04 04:43:29;;;;;;;1999.90;999.90;;;11.80;99.90;;;;;;5054063;28;20446;-76
2023/01/04 04:45:55;;;;;;;1999.90;999.90;;;12.10;99.90;;;;;;5053764;28;20025;-76
2023/01/04 04:48:21;;;;;;;1999.90;999.90;;;12.30;99.90;;;;;;5052337;28;20029;-76
2023/01/04 04:50:46;;;;;;;1999.90;999.90;;;12.40;99.90;;;;;;5053907;28;20025;-76
2023/01/04 04:53:12;;;;;;;1999.90;999.90;;;12.50;99.90;;;;;;5053833;28;20057;-76
2023/01/04 04:55:37;;;;;;;1999.90;999.90;;;12.50;99.90;;;;;;5053779;28;20400;-76
2023/01/04 04:58:03;;;;;;;1999.90;999.90;;;12.50;99.90;;;;;;5053339;28;20040;-76
2023/01/04 05:00:29;;;;;;;1999.90;999.90;;;12.50;99.90;;;;;;5053565;28;20035;-76
2023/01/04 05:02:57;;;;;;;1999.90;999.90;;;12.60;99.90;;;;;;5053753;28;20029;-76
2023/01/04 05:05:23;;;;;;;1999.90;999.90;;;12.60;99.90;;;;;;5052523;28;20136;-76
2023/01/04 05:07:49;;;;;;;1999.90;999.90;;;12.50;99.90;;;;;;5053138;28;20440;-76
2023/01/04 05:10:14;;;;;;;1999.90;999.90;;;12.50;99.90;;;;;;5051851;28;20396;-76
2023/01/04 05:12:58;;;;;;;1999.90;999.90;;;12.50;99.90;;;;;;5052033;28;20068;-76
2023/01/04 05:15:33;;;;;;;1999.90;999.90;;;12.50;99.90;;;;;;5053453;28;20036;-77
2023/01/04 05:17:59;;;;;;;1999.90;999.90;;;12.60;99.90;;;;;;5053182;28;20028;-76
2023/01/04 05:20:25;;;;;;;1999.90;999.90;;;12.50;99.90;;;;;;5053306;28;20025;-77
2023/01/04 05:22:51;;;;;;;1999.90;999.90;;;12.50;99.90;;;;;;5053120;28;20028;-76
2023/01/04 05:25:16;;;;;;;1999.90;999.90;;;12.50;99.90;;;;;;5051510;28;20399;-76
2023/01/04 05:27:42;;;;;;;1999.90;999.90;;;12.60;99.90;;;;;;5052744;28;20472;-76
2023/01/04 05:32:57;;;;;;;1999.90;999.90;;;12.50;99.90;;;;;;5053382;28;20138;-77
2023/01/04 05:35:23;;;;;;;1999.90;999.90;;;12.60;99.90;;;;;;5052945;28;20029;-76
2023/01/04 05:37:49;;;;;;;1999.90;999.90;;;12.60;99.90;;;;;;5052941;28;20029;-77
2023/01/04 05:40:14;;;;;;;1999.90;999.90;;;12.60;99.90;;;;;;5047116;28;20028;-76
2023/01/04 05:42:40;;;;;;;1999.90;999.90;;;12.60;99.90;;;;;;5052669;28;20033;-76
2023/01/04 05:45:06;;;;;;;1999.90;999.90;;;12.60;99.90;;;;;;5052828;28;20025;-76
2023/01/04 05:47:32;;;;;;;1999.90;999.90;;;12.60;99.90;;;;;;5052244;28;20499;-77
2023/01/04 05:49:57;;;;;;;1999.90;999.90;;;12.60;99.90;;;;;;5050931;28;20040;-76
2023/01/04 05:52:23;;;;;;;1999.90;999.90;;;12.70;99.90;;;;;;5051899;28;20057;-77
2023/01/04 05:54:49;;;;;;;1999.90;999.90;;;12.70;99.90;;;;;;5052791;28;20029;-76
2023/01/04 05:57:15;;;;;;;1999.90;999.90;;;12.70;99.90;;;;;;5052139;28;20025;-77
2023/01/04 05:59:41;;;;;;;1999.90;999.90;;;12.60;99.90;;;;;;5052603;28;20029;-76
2023/01/04 06:02:11;;;;;;;1999.90;999.90;;;12.60;99.90;;;;;;5051551;28;20086;-76
2023/01/04 06:04:37;;;;;;;1999.90;999.90;;;12.60;99.90;;;;;;5052679;28;20077;-77
2023/01/04 06:07:03;;;;;;;1999.90;999.90;;;12.50;99.90;;;;;;5051943;28;20100;-77
2023/01/04 06:09:28;;;;;;;1999.90;999.90;;;12.50;99.90;;;;;;5052119;28;20098;-76
2023/01/04 06:11:54;;;;;;;1999.90;999.90;;;12.50;99.90;;;;;;5051650;28;20029;-76
2023/01/04 06:14:19;;;;;;;1999.90;999.90;;;12.50;99.90;;;;;;5052243;28;20029;-76
2023/01/04 06:16:45;;;;;;;1999.90;999.90;;;12.50;99.90;;;;;;5052362;28;20033;-76
2023/01/04 06:19:11;;;;;;;1999.90;999.90;;;12.50;99.90;;;;;;5052095;28;20553;-76
2023/01/04 06:21:36;;;;;;;1999.90;999.90;;;12.40;99.90;;;;;;5051516;28;20035;-76
2023/01/04 06:24:02;;;;;;;1999.90;999.90;;;12.50;99.90;;;;;;5051337;28;20021;-76
2023/01/04 06:26:28;;;;;;;1999.90;999.90;;;12.40;99.90;;;;;;5050602;28;20044;-76
2023/01/04 06:28:53;;;;;;;1999.90;999.90;;;12.40;99.90;;;;;;5052249;28;20078;-77
2023/01/04 06:31:19;;;;;;;1999.90;999.90;;;12.40;99.90;;;;;;5051491;28;20108;-76
2023/01/04 06:33:44;;;;;;;1999.90;999.90;;;12.40;99.90;;;;;;5052110;28;20025;-76
2023/01/04 06:36:10;;;;;;;1999.90;999.90;;;12.30;99.90;;;;;;5041738;28;20040;-76
2023/01/04 06:38:35;;;;;;;1999.90;999.90;;;12.30;99.90;;;;;;5032023;28;20049;-76
2023/01/04 06:41:01;;;;;;;1999.90;999.90;;;12.30;99.90;;;;;;5041825;28;20532;-76
2023/01/04 06:43:27;;;;;;;1999.90;999.90;;;12.30;99.90;;;;;;5042439;28;20025;-76
2023/01/04 06:45:53;;;;;;;1999.90;999.90;;;12.30;99.90;;;;;;5041471;28;20026;-75
2023/01/04 06:48:18;;;;;;;1999.90;999.90;;;12.30;99.90;;;;;;5042232;28;20020;-76
2023/01/04 06:50:44;;;;;;;1999.90;999.90;;;12.30;99.90;;;;;;5050039;28;20029;-77
2023/01/04 06:53:09;;;;;;;1999.90;999.90;;;12.30;99.90;;;;;;5036521;28;20040;-77
2023/01/04 06:55:35;;;;;;;1999.90;999.90;;;12.40;99.90;;;;;;5050568;28;20037;-76
2023/01/04 06:58:01;;;;;;;1999.90;999.90;;;12.40;99.90;;;;;;5041622;28;20373;-75
2023/01/04 07:00:27;;;;;;;1999.90;999.90;;;12.40;99.90;;;;;;5044739;28;20029;-75
2023/01/04 07:02:52;;;;;;;1999.90;999.90;;;12.40;99.90;;;;;;5049742;28;20037;-77
2023/01/04 07:05:18;;;;;;;1999.90;999.90;;;12.40;99.90;;;;;;5045066;28;20104;-76
2023/01/04 07:07:43;;;;;;;1999.90;999.90;;;12.50;99.90;;;;;;5047076;28;20024;-77
2023/01/04 07:10:09;;;;;;;1999.90;999.90;;;12.50;99.90;;;;;;5050186;28;20033;-75
2023/01/04 07:12:36;;;;;;;1999.90;999.90;;;12.50;99.90;;;;;;5051670;28;20433;-75
2023/01/04 07:15:02;;;;;;;1999.90;999.90;;;12.50;99.90;;;;;;5050032;28;20032;-75
2023/01/04 07:17:28;;;;;;;1999.90;999.90;;;12.50;99.90;;;;;;5047293;28;20041;-76
2023/01/04 07:19:53;;;;;;;1999.90;999.90;;;12.50;99.90;;;;;;5048725;28;20095;-75
2023/01/04 07:22:19;;;;;;;1999.90;999.90;;;12.50;99.90;;;;;;5046999;28;20027;-75
2023/01/04 07:24:44;;;;;;;1999.90;999.90;;;12.50;99.90;;;;;;5048534;28;20496;-75
2023/01/04 07:27:11;;;;;;;1999.90;999.90;;;12.50;99.90;;;;;;5048185;28;20057;-75
2023/01/04 07:29:37;;;;;;;1999.90;999.90;;;12.50;99.90;;;;;;5041638;28;20083;-75
2023/01/04 07:32:03;;;;;;;1999.90;999.90;;;12.50;99.90;;;;;;5048669;28;20025;-75
2023/01/04 07:34:28;;;;;;;1999.90;999.90;;;12.60;99.90;;;;;;5047221;28;20055;-75
2023/01/04 07:36:54;;;;;;;1999.90;999.90;;;12.60;99.90;;;;;;5053697;28;20546;-76
2023/01/04 07:39:21;;;;;;;1999.90;999.90;;;12.60;99.90;;;;;;5048354;28;20431;-75
2023/01/04 07:41:47;;;;;;;1999.90;999.90;;;12.60;99.90;;;;;;5051245;28;20022;-75
2023/01/04 07:44:13;;;;;;;1999.90;999.90;;;12.60;99.90;;;;;;5059923;28;20115;-75
2023/01/04 07:46:41;;;;;;;1999.90;999.90;;;12.60;99.90;;;;;;5052876;28;20695;-76
2023/01/04 07:49:11;;;;;;;1999.90;999.90;;;12.60;99.90;;;;;;5053227;28;20426;-75
2023/01/04 07:51:36;;;;;;;1999.90;999.90;;;12.60;99.90;;;;;;5047792;28;20128;-75
2023/01/04 07:54:02;;;;;;;1999.90;999.90;;;12.60;99.90;;;;;;5044401;28;20099;-75
2023/01/04 07:56:28;;;;;;;1999.90;999.90;;;12.60;99.90;;;;;;5057433;28;20487;-75
2023/01/04 07:58:58;;;;;;;1999.90;999.90;;;12.60;99.90;;;;;;5050400;28;20028;-75
2023/01/04 08:01:24;;;;;;;1999.90;999.90;;;12.60;99.90;;;;;;5050340;28;20432;-75
2023/01/04 08:03:51;;;;;;;1999.90;999.90;;;12.70;99.90;;;;;;5047279;28;20049;-75
2023/01/04 08:06:17;;;;;;;1999.90;999.90;;;12.70;99.90;;;;;;5050672;28;20344;-75
2023/01/04 08:08:43;;;;;;;1999.90;999.90;;;12.70;99.90;;;;;;5049580;28;20017;-75
2023/01/04 08:11:15;;;;;;;1999.90;999.90;;;12.70;99.90;;;;;;5043615;28;20029;-76
2023/01/04 08:13:41;;;;;;;1999.90;999.90;;;12.70;99.90;;;;;;5046364;28;20033;-75
2023/01/04 08:16:13;;;;;;;1999.90;999.90;;;12.70;99.90;;;;;;5048206;28;20446;-75
2023/01/04 08:18:38;;;;;;;1999.90;999.90;;;12.70;99.90;;;;;;5050922;28;20120;-74
2023/01/04 08:21:06;;;;;;;1999.90;999.90;;;12.70;99.90;;;;;;5049800;28;20100;-75
2023/01/04 08:23:34;;;;;;;1999.90;999.90;;;12.70;99.90;;;;;;5047152;28;20055;-77
2023/01/04 08:26:12;;;;;;;1999.90;999.90;;;12.80;99.90;;;;;;5057650;28;20602;-77
2023/01/04 08:28:38;;;;;;;1999.90;999.90;;;12.80;99.90;;;;;;5046556;28;20619;-76
2023/01/04 08:31:06;;;;;;;1999.90;999.90;;;12.80;99.90;;;;;;5043765;28;20100;-76
2023/01/04 08:33:33;;;;;;;1999.90;999.90;;;12.80;99.90;;;;;;5058433;28;20173;-76
2023/01/04 08:36:12;;;;;;;1999.90;999.90;;;12.80;99.90;;;;;;5050269;28;20017;-75
2023/01/04 08:38:38;;;;;;;1999.90;999.90;;;12.80;99.90;;;;;;5048461;28;20120;-78
2023/01/04 08:41:05;;;;;;;1999.90;999.90;;;12.90;99.90;;;;;;5051131;28;20100;-76
2023/01/04 08:43:31;;;;;;;1999.90;999.90;;;12.90;99.90;;;;;;5042097;28;20345;-77
2023/01/04 08:45:56;;;;;;;1999.90;999.90;;;12.90;99.90;;;;;;5050070;28;20024;-76
2023/01/04 08:48:22;;;;;;;1999.90;999.90;;;12.90;99.90;;;;;;5044500;28;20024;-77
2023/01/04 08:50:48;;;;;;;1999.90;999.90;;;13.00;99.90;;;;;;5046451;28;20534;-76
2023/01/04 08:53:13;;;;;;;1999.90;999.90;;;12.90;99.90;;;;;;5048043;28;20492;-76
2023/01/04 08:55:39;;;;;;;1999.90;999.90;;;12.90;99.90;;;;;;5047954;28;20108;-76
2023/01/04 08:58:06;;;;;;;1999.90;999.90;;;13.00;99.90;;;;;;5045774;28;20060;-77
2023/01/04 09:00:31;;;;;;;1999.90;999.90;;;13.00;99.90;;;;;;5048027;28;20040;-77
2023/01/04 09:02:57;;;;;;;1999.90;999.90;;;13.00;99.90;;;;;;5042204;28;20042;-76
2023/01/04 09:05:24;;;;;;;1999.90;999.90;;;13.00;99.90;;;;;;5043939;28;20041;-78
2023/01/04 09:07:50;;;;;;;1999.90;999.90;;;13.10;99.90;;;;;;5043000;28;20116;-76
2023/01/04 09:10:16;;;;;;;1999.90;999.90;;;13.00;99.90;;;;;;5043692;28;20025;-76
2023/01/04 09:12:42;;;;;;;1999.90;999.90;;;13.10;99.90;;;;;;5048778;28;20032;-76
2023/01/04 09:15:08;;;;;;;1999.90;999.90;;;13.10;99.90;;;;;;5046391;28;20032;-76
2023/01/04 09:17:34;;;;;;;1999.90;999.90;;;13.10;99.90;;;;;;5045463;28;20504;-76
2023/01/04 09:19:59;;;;;;;1999.90;999.90;;;13.10;99.90;;;;;;5048325;28;20025;-76
2023/01/04 09:22:25;;;;;;;1999.90;999.90;;;13.10;99.90;;;;;;5047457;28;20040;-76
2023/01/04 09:24:51;;;;;;;1999.90;999.90;;;13.00;99.90;;;;;;5046527;28;20577;-76
2023/01/04 09:27:16;;;;;;;1999.90;999.90;;;13.00;99.90;;;;;;5047275;28;20028;-76
2023/01/04 09:29:42;;;;;;;1999.90;999.90;;;13.00;99.90;;;;;;5047483;28;20029;-79
2023/01/04 09:32:08;;;;;;;1999.90;999.90;;;13.00;99.90;;;;;;5046337;28;20025;-76
2023/01/04 09:34:34;;;;;;;1999.90;999.90;;;13.00;99.90;;;;;;5042917;28;20119;-76
2023/01/04 09:36:59;;;;;;;1999.90;999.90;;;13.00;99.90;;;;;;5046170;28;20108;-76
2023/01/04 09:39:29;;;;;;;1999.90;999.90;;;13.00;99.90;;;;;;5044431;28;20036;-76
2023/01/04 09:42:00;;;;;;;1999.90;999.90;;;13.00;99.90;;;;;;5044760;28;20072;-76
2023/01/04 09:44:40;;;;;;;1999.90;999.90;;;13.10;99.90;;;;;;5044999;28;20030;-76
2023/01/04 09:47:15;;;;;;;1999.90;999.90;;;13.20;99.90;;;;;;5046331;28;20064;-76
2023/01/04 09:49:53;;;;;;;1999.90;999.90;;;13.30;99.90;;;;;;5045401;28;20048;-76
2023/01/04 09:52:24;;;;;;;1999.90;999.90;;;13.40;99.90;;;;;;5036544;28;20080;-75
2023/01/04 09:55:00;;;;;;;1999.90;999.90;;;13.40;99.90;;;;;;5038500;28;20021;-77
2023/01/04 09:57:29;;;;;;;1999.90;999.90;;;13.40;99.90;;;;;;5039386;28;20025;-76
2023/01/04 10:00:10;;;;;;;1999.90;999.90;;;13.40;99.90;;;;;;5042914;28;20064;-78
2023/01/04 10:02:43;;;;;;;1999.90;999.90;;;13.40;99.90;;;;;;5060195;28;20030;-77
2023/01/04 10:05:22;;;;;;;1999.90;999.90;;;13.30;99.90;;;;;;5045370;28;20052;-76
2023/01/04 10:07:48;;;;;;;1999.90;999.90;;;13.20;99.90;;;;;;5038365;28;20029;-77
2023/01/04 10:10:16;;;;;;;1999.90;999.90;;;13.30;99.90;;;;;;5040822;28;20032;-77
2023/01/04 10:13:14;;;;;;;1999.90;999.90;;;13.30;99.90;;;;;;5039109;28;20116;-76
2023/01/04 10:15:49;;;;;;;1999.90;999.90;;;13.30;99.90;;;;;;5043624;28;20055;-76
2023/01/04 10:18:36;;;;;;;1999.90;999.90;;;13.40;99.90;;;;;;5049975;28;20027;-76
2023/01/04 10:21:20;;;;;;;1999.90;999.90;;;13.40;99.90;;;;;;5049909;28;20504;-75
2023/01/04 10:24:06;;;;;;;1999.90;999.90;;;13.40;99.90;;;;;;5043722;28;20040;-75
2023/01/04 10:26:49;;;;;;;1999.90;999.90;;;13.40;99.90;;;;;;5045540;28;20032;-73
2023/01/04 10:29:33;;;;;;;1999.90;999.90;;;13.40;99.90;;;;;;5056356;28;20036;-75
2023/01/04 10:32:15;;;;;;;1999.90;999.90;;;13.50;99.90;;;;;;5041682;28;20116;-76
2023/01/04 10:34:43;;;;;;;1999.90;999.90;;;13.50;99.90;;;;;;5043478;28;20060;-76
2023/01/04 10:37:27;;;;;;;1999.90;999.90;;;13.50;99.90;;;;;;5035049;28;20029;-76
2023/01/04 10:39:55;;;;;;;1999.90;999.90;;;13.60;99.90;;;;;;5044366;28;20028;-75
2023/01/04 10:42:31;;;;;;;1999.90;999.90;;;13.60;99.90;;;;;;5047216;28;20033;-75
2023/01/04 10:45:12;;;;;;;1999.90;999.90;;;13.60;99.90;;;;;;5044837;28;20352;-75
2023/01/04 10:47:58;;;;;;;1999.90;999.90;;;13.70;99.90;;;;;;5041103;28;20575;-75
2023/01/04 10:50:32;;;;;;;1999.90;999.90;;;13.80;99.90;;;;;;5045632;28;20154;-75
2023/01/04 10:53:09;;;;;;;1999.90;999.90;;;13.80;99.90;;;;;;5044277;28;20040;-76
2023/01/04 10:55:41;;;;;;;1999.90;999.90;;;13.80;99.90;;;;;;5040136;28;20068;-76
2023/01/04 10:58:23;;;;;;;1999.90;999.90;;;13.90;99.90;;;;;;5046679;28;20033;-76
2023/01/04 11:01:12;;;;;;;1999.90;999.90;;;14.00;99.90;;;;;;5045484;28;20029;-77
2023/01/04 11:04:03;;;;;;;1999.90;999.90;;;14.10;99.90;;;;;;5040724;28;20025;-75
2023/01/04 11:06:35;;;;;;;1999.90;999.90;;;14.10;99.90;;;;;;5038968;28;20037;-75
2023/01/04 11:09:20;;;;;;;1999.90;999.90;;;14.10;99.90;;;;;;5042035;28;20025;-76
2023/01/04 11:11:47;;;;;;;1999.90;999.90;;;14.20;99.90;;;;;;5045449;28;20143;-76
2023/01/04 11:14:14;;;;;;;1999.90;999.90;;;14.20;99.90;;;;;;5052696;28;20757;-75
2023/01/04 11:16:43;;;;;;;1999.90;999.90;;;14.20;99.90;;;;;;5043147;28;20044;-76
2023/01/04 11:19:09;;;;;;;1999.90;999.90;;;14.30;99.90;;;;;;5044095;28;20030;-76
2023/01/04 11:21:53;;;;;;;1999.90;999.90;;;14.40;99.90;;;;;;5052235;28;20422;-76
2023/01/04 11:24:20;;;;;;;1999.90;999.90;;;14.40;99.90;;;;;;5047530;28;20531;-76
2023/01/04 11:26:47;;;;;;;1999.90;999.90;;;14.40;99.90;;;;;;5050119;28;20029;-78
2023/01/04 11:29:29;;;;;;;1999.90;999.90;;;14.30;99.90;;;;;;5048876;28;20155;-76
2023/01/04 11:32:00;;;;;;;1999.90;999.90;;;14.30;99.90;;;;;;5048458;28;20029;-75
2023/01/04 11:34:53;;;;;;;1999.90;999.90;;;14.20;99.90;;;;;;5046808;28;20017;-76
2023/01/04 11:37:36;;;;;;;1999.90;999.90;;;14.20;99.90;;;;;;5042642;28;20079;-76
2023/01/04 11:40:17;;;;;;;1999.90;999.90;;;14.20;99.90;;;;;;5044063;28;20049;-75
2023/01/04 11:42:44;;;;;;;1999.90;999.90;;;14.20;99.90;;;;;;5057212;28;20052;-76
2023/01/04 11:45:17;;;;;;;1999.90;999.90;;;14.20;99.90;;;;;;5055336;28;20025;-77
2023/01/04 11:47:54;;;;;;;1999.90;999.90;;;14.20;99.90;;;;;;5065321;28;20085;-75
2023/01/04 11:50:47;;;;;;;1999.90;999.90;;;14.30;99.90;;;;;;5056179;28;20112;-76
2023/01/04 11:53:29;;;;;;;1999.90;999.90;;;14.20;99.90;;;;;;5051797;28;20040;-76
2023/01/04 11:56:12;;;;;;;1999.90;999.90;;;14.20;99.90;;;;;;5051577;28;20400;-76
2023/01/04 11:58:39;;;;;;;1999.90;999.90;;;14.20;99.90;;;;;;5044223;28;20499;-77
2023/01/04 12:01:04;;;;;;;1999.90;999.90;;;14.20;99.90;;;;;;5052259;28;20032;-79
2023/01/04 12:03:39;;;;;;;1999.90;999.90;;;14.10;99.90;;;;;;5050610;28;20039;-76
2023/01/04 12:06:40;;;;;;;1999.90;999.90;;;14.10;99.90;;;;;;5046393;28;20036;-76
2023/01/04 12:09:12;;;;;;;1999.90;999.90;;;14.00;99.90;;;;;;5048539;28;20395;-76
2023/01/04 12:11:41;;;;;;;1999.90;999.90;;;14.00;99.90;;;;;;5052729;28;20033;-76
2023/01/04 12:14:31;;;;;;;1999.90;999.90;;;14.00;99.90;;;;;;5050099;28;20044;-78
2023/01/04 12:16:59;;;;;;;1999.90;999.90;;;14.00;99.90;;;;;;5047078;28;20040;-76
2023/01/04 12:19:26;;;;;;;1999.90;999.90;;;14.00;99.90;;;;;;5052379;28;20035;-76
2023/01/04 12:21:56;;;;;;;1999.90;999.90;;;14.10;99.90;;;;;;5049809;28;20029;-76
2023/01/04 12:24:25;;;;;;;1999.90;999.90;;;14.20;99.90;;;;;;5049281;28;20040;-76
2023/01/04 12:26:51;;;;;;;1999.90;999.90;;;14.20;99.90;;;;;;5064805;28;20035;-75
2023/01/04 12:29:23;;;;;;;1999.90;999.90;;;14.20;99.90;;;;;;5053787;28;20025;-76
2023/01/04 12:31:50;;;;;;;1999.90;999.90;;;14.20;99.90;;;;;;5049552;28;20141;-78
2023/01/04 12:34:22;;;;;;;1999.90;999.90;;;14.10;99.90;;;;;;5049630;28;20487;-78
2023/01/04 12:36:51;;;;;;;1999.90;999.90;;;14.10;99.90;;;;;;5049931;28;20052;-77
2023/01/04 12:39:21;;;;;;;1999.90;999.90;;;14.10;99.90;;;;;;5049573;28;20774;-76
2023/01/04 12:42:02;;;;;;;1999.90;999.90;;;14.10;99.90;;;;;;5048835;28;20048;-76
2023/01/04 12:44:45;;;;;;;1999.90;999.90;;;14.10;99.90;;;;;;5049879;28;20120;-76
2023/01/04 12:50:13;;;;;;;1999.90;999.90;;;14.20;99.90;;;;;;5052302;28;20114;-75
2023/01/04 12:52:43;;;;;;;1999.90;999.90;;;14.20;99.90;;;;;;5049020;28;20147;-76
2023/01/04 12:55:30;;;;;;;1999.90;999.90;;;14.30;99.90;;;;;;5047996;28;20115;-75
2023/01/04 12:58:00;;;;;;;1999.90;999.90;;;14.30;99.90;;;;;;5044191;28;20033;-77
2023/01/04 13:00:58;;;;;;;1999.90;999.90;;;14.30;99.90;;;;;;5049352;28;20095;-76
2023/01/04 13:03:25;;;;;;;1999.90;999.90;;;14.20;99.90;;;;;;5043107;28;20152;-76
2023/01/04 13:05:55;;;;;;;1999.90;999.90;;;14.30;99.90;;;;;;5049400;28;20057;-76